createdAt,value
2022-09-05T00:02:01.255Z,2.80
2022-09-05T00:04:35.631Z,3.10
2022-09-05T00:07:07.103Z,3.25
2022-09-05T00:09:59.513Z,3.08
2022-09-05T00:12:36.426Z,2.90
2022-09-05T00:15:17.120Z,2.47
2022-09-05T00:19:10.688Z,3.10
2022-09-05T00:24:22.454Z,2.47
2022-09-05T00:24:42.297Z,4.18
2022-09-05T00:27:11.423Z,4.50
2022-09-05T00:31:07.858Z,3.85
2022-09-05T00:32:52.353Z,3.92
2022-09-05T00:35:28.676Z,3.80
2022-09-05T00:38:03.470Z,4.03
2022-09-05T00:40:33.903Z,3.83
2022-09-05T00:43:28.484Z,4.03
2022-09-05T00:45:55.722Z,3.88
2022-09-05T00:48:48.322Z,3.85
2022-09-05T00:51:34.754Z,3.60
2022-09-05T00:54:24.824Z,3.53
2022-09-05T00:57:29.045Z,2.83
2022-09-05T01:02:29.979Z,2.70
2022-09-05T01:05:09.352Z,6.13
2022-09-05T01:08:05.825Z,4.20
2022-09-05T01:10:43.429Z,2.83
2022-09-05T01:13:21.521Z,2.90
2022-09-05T01:16:09.477Z,3.95
2022-09-05T01:18:47.209Z,4.88
2022-09-05T01:21:39.395Z,4.60
2022-09-05T01:24:27.704Z,4.63
2022-09-05T01:27:20.416Z,4.20
2022-09-05T01:30:04.307Z,3.38
2022-09-05T01:33:00.804Z,4.82
2022-09-05T01:36:01.943Z,3.70
2022-09-05T01:38:46.946Z,3.30
2022-09-05T01:41:46.085Z,3.95
2022-09-05T01:44:24.430Z,4.38
2022-09-05T01:47:03.573Z,3.78
2022-09-05T01:49:42.317Z,4.57
2022-09-05T01:52:10.679Z,5.22
2022-09-05T01:54:53.337Z,3.97
2022-09-05T01:57:30.551Z,4.07
2022-09-05T02:00:25.540Z,4.97
2022-09-05T02:02:57.062Z,4.82
2022-09-05T02:05:49.790Z,4.20
2022-09-05T02:08:17.039Z,4.57
2022-09-05T02:11:00.678Z,5.00
2022-09-05T02:13:34.202Z,3.58
2022-09-05T02:16:20.515Z,2.80
2022-09-05T02:18:47.799Z,3.78
2022-09-05T02:21:55.683Z,4.07
2022-09-05T02:24:31.876Z,3.25
2022-09-05T02:27:40.221Z,4.15
2022-09-05T02:30:13.762Z,5.57
2022-09-05T02:32:53.473Z,5.25
2022-09-05T02:35:25.696Z,4.47
2022-09-05T02:39:33.530Z,6.45
2022-09-05T02:45:07.734Z,5.13
2022-09-05T02:45:08.057Z,6.13
2022-09-05T02:46:48.901Z,3.83
2022-09-05T02:55:38.497Z,4.10
2022-09-05T02:57:40.615Z,2.10
2022-09-05T02:57:47.031Z,5.68
2022-09-05T02:58:47.835Z,3.33
2022-09-05T03:01:27.614Z,6.80
2022-09-05T03:03:58.867Z,5.30
2022-09-05T03:06:44.479Z,3.08
2022-09-05T03:09:20.350Z,3.30
2022-09-05T03:12:28.656Z,5.78
2022-09-05T03:15:23.249Z,5.10
2022-09-05T03:17:57.434Z,3.58
2022-09-05T03:21:09.752Z,5.03
2022-09-05T03:24:02.463Z,3.88
2022-09-05T03:26:32.814Z,6.32
2022-09-05T03:29:15.336Z,4.18
2022-09-05T03:31:45.418Z,2.95
2022-09-05T03:34:37.403Z,2.50
2022-09-05T03:37:23.080Z,3.13
2022-09-05T03:39:57.503Z,2.50
2022-09-05T03:42:33.992Z,2.95
2022-09-05T03:45:37.252Z,2.65
2022-09-05T03:48:28.612Z,3.90
2022-09-05T03:57:08.630Z,3.10
2022-09-05T03:57:20.406Z,2.83
2022-09-05T03:57:43.273Z,3.78
2022-09-05T04:00:23.714Z,4.00
2022-09-05T04:07:03.619Z,4.15
2022-09-05T04:08:16.469Z,4.03
2022-09-05T04:08:55.853Z,3.15
2022-09-05T04:11:39.072Z,2.92
2022-09-05T04:14:32.734Z,3.40
2022-09-05T04:17:10.154Z,4.10
2022-09-05T04:19:54.550Z,4.05
2022-09-05T06:14:55.256Z,4.40
2022-09-05T06:15:12.143Z,5.45
2022-09-05T06:18:00.582Z,5.40
2022-09-05T06:22:07.119Z,5.78
2022-09-05T06:23:38.867Z,5.90
2022-09-05T06:26:33.194Z,5.75
2022-09-05T06:29:14.547Z,5.75
2022-09-05T06:31:53.822Z,5.72
2022-09-05T06:34:46.511Z,4.78
2022-09-05T06:37:14.036Z,5.20
2022-09-05T06:40:12.689Z,4.95
2022-09-05T06:42:43.412Z,4.55
2022-09-05T06:45:28.259Z,4.15
2022-09-05T06:48:36.645Z,4.28
2022-09-05T06:51:31.557Z,3.45
2022-09-05T06:54:17.580Z,3.53
2022-09-05T06:56:54.554Z,3.20
2022-09-05T06:59:27.804Z,3.03
2022-09-05T07:02:15.481Z,2.90
2022-09-05T07:05:36.955Z,2.72
2022-09-05T07:08:20.437Z,2.85
2022-09-05T07:11:18.111Z,2.40
2022-09-05T07:13:55.578Z,2.35
2022-09-05T07:16:41.859Z,2.00
2022-09-05T07:19:32.568Z,2.03
2022-09-05T07:22:41.742Z,2.20
2022-09-05T07:25:37.594Z,1.85
2022-09-05T07:28:29.806Z,1.85
2022-09-05T07:31:14.629Z,1.65
2022-09-05T07:34:21.090Z,1.40
2022-09-05T07:37:14.760Z,1.48
2022-09-05T07:39:50.102Z,1.55
2022-09-05T07:42:27.447Z,1.40
2022-09-05T07:45:01.231Z,1.53
2022-09-05T07:47:39.465Z,1.20
2022-09-05T07:56:56.184Z,1.20
2022-09-05T07:57:04.919Z,1.58
2022-09-05T07:58:58.452Z,1.17
2022-09-05T08:01:25.751Z,1.20
2022-09-05T08:03:57.214Z,1.40
2022-09-05T08:07:20.221Z,0.98
2022-09-05T08:10:06.720Z,1.10
2022-09-05T08:13:22.700Z,1.20
2022-09-05T08:15:24.864Z,0.93
2022-09-05T08:18:15.522Z,1.30
2022-09-05T08:20:48.909Z,1.10
2022-09-05T08:23:45.707Z,1.00
2022-09-05T08:26:14.698Z,0.88
2022-09-05T08:28:48.588Z,1.08
2022-09-05T08:31:20.477Z,0.80
2022-09-05T08:33:55.470Z,1.02
2022-09-05T08:36:42.877Z,1.08
2022-09-05T08:39:18.563Z,1.10
2022-09-05T08:41:57.835Z,0.80
2022-09-05T08:46:44.900Z,0.70
2022-09-05T08:47:45.455Z,0.90
2022-09-05T08:50:31.581Z,0.60
2022-09-05T08:53:04.759Z,0.80
2022-09-05T08:56:20.694Z,0.70
2022-09-05T08:59:28.474Z,0.82
2022-09-05T09:02:45.458Z,0.90
2022-09-05T09:05:07.629Z,0.70
2022-09-05T09:07:55.583Z,1.02
2022-09-05T09:10:48.421Z,0.90
2022-09-05T09:13:37.464Z,0.77
2022-09-05T09:16:07.072Z,0.88
2022-09-05T09:19:01.436Z,1.00
2022-09-05T09:21:34.339Z,0.70
2022-09-05T09:24:14.495Z,0.73
2022-09-05T09:27:00.756Z,0.93
2022-09-05T09:29:35.652Z,1.00
2022-09-05T09:32:10.944Z,1.00
2022-09-05T09:34:56.615Z,0.90
2022-09-05T09:37:51.900Z,0.95
2022-09-05T09:40:52.320Z,0.88
2022-09-05T09:43:33.116Z,0.98
2022-09-05T09:46:09.682Z,0.70
2022-09-05T09:48:43.110Z,1.23
2022-09-05T09:51:37.509Z,0.98
2022-09-05T09:54:07.766Z,0.73
2022-09-05T09:57:00.456Z,0.77
2022-09-05T09:59:30.911Z,1.13
2022-09-05T10:03:50.004Z,0.60
2022-09-05T10:10:38.917Z,0.70
2022-09-05T10:10:57.757Z,0.90
2022-09-05T10:11:53.166Z,0.80
2022-09-05T10:14:49.740Z,0.85
2022-09-05T10:17:28.041Z,0.80
2022-09-05T10:20:10.440Z,0.80
2022-09-05T10:22:38.700Z,0.93
2022-09-05T10:25:19.836Z,1.05
2022-09-05T10:28:06.023Z,0.80
2022-09-05T10:32:53.601Z,0.65
2022-09-05T10:35:22.834Z,0.82
2022-09-05T10:36:55.571Z,0.73
2022-09-05T10:39:37.659Z,0.98
2022-09-05T10:42:15.506Z,0.80
2022-09-05T10:45:02.306Z,0.70
2022-09-05T10:47:53.476Z,0.93
2022-09-05T10:50:28.895Z,1.00
2022-09-05T10:53:21.480Z,0.90
2022-09-05T10:55:52.329Z,0.60
2022-09-05T11:00:47.790Z,0.90
2022-09-05T11:02:26.241Z,0.77
2022-09-05T11:04:58.852Z,0.70
2022-09-05T11:07:54.055Z,0.98
2022-09-05T11:10:39.543Z,0.70
2022-09-05T11:13:23.837Z,1.00
2022-09-05T11:16:13.448Z,0.50
2022-09-05T11:19:07.342Z,0.93
2022-09-05T11:21:41.630Z,0.85
2022-09-05T11:24:15.701Z,0.90
2022-09-05T11:26:58.240Z,1.05
2022-09-05T11:29:51.616Z,0.85
2022-09-05T11:35:51.371Z,0.73
2022-09-05T11:39:48.029Z,0.73
2022-09-05T11:39:53.549Z,0.77
2022-09-05T11:41:42.167Z,0.68
2022-09-05T11:44:26.246Z,0.80
2022-09-05T11:47:26.539Z,0.93
2022-09-05T11:50:09.665Z,1.00
2022-09-05T11:52:55.711Z,1.00
2022-09-05T11:55:32.647Z,0.60
2022-09-05T11:57:59.755Z,0.90
2022-09-05T12:01:43.135Z,0.95
2022-09-05T12:03:59.774Z,0.80
2022-09-05T12:07:07.353Z,0.88
2022-09-05T12:10:43.851Z,0.63
2022-09-05T12:13:26.338Z,0.80
2022-09-05T12:19:18.903Z,0.80
2022-09-05T12:22:09.006Z,0.85
2022-09-05T12:25:24.100Z,0.90
2022-09-05T12:29:25.996Z,0.70
2022-09-05T12:31:07.112Z,0.60
2022-09-05T12:33:38.384Z,0.90
2022-09-05T12:40:30.200Z,0.80
2022-09-05T12:40:56.858Z,0.80
2022-09-05T12:41:41.217Z,0.80
2022-09-05T12:42:33.073Z,0.88
2022-09-05T12:45:09.267Z,0.68
2022-09-05T12:47:53.558Z,0.47
2022-09-05T12:50:23.189Z,0.63
2022-09-05T12:52:51.579Z,0.60
2022-09-05T12:55:29.618Z,0.70
2022-09-05T13:01:08.165Z,0.80
2022-09-05T13:03:05.548Z,0.77
2022-09-05T13:04:19.558Z,0.70
2022-09-05T13:07:00.798Z,0.50
2022-09-05T13:09:37.179Z,0.60
2022-09-05T13:15:24.254Z,1.00
2022-09-05T13:18:15.778Z,0.70
2022-09-05T13:20:51.425Z,0.70
2022-09-05T13:23:42.593Z,1.20
2022-09-05T13:26:23.845Z,0.70
2022-09-05T13:29:11.002Z,0.73
2022-09-05T13:37:58.529Z,0.70
2022-09-05T13:38:07.908Z,0.70
2022-09-05T13:38:14.609Z,0.70
2022-09-05T13:40:34.766Z,0.57
2022-09-05T13:43:07.206Z,0.80
2022-09-05T13:45:43.815Z,0.75
2022-09-05T13:48:28.318Z,0.80
2022-09-05T13:51:06.716Z,0.80
2022-09-05T13:56:30.620Z,0.70
2022-09-05T13:59:03.436Z,0.60
2022-09-05T14:02:22.644Z,0.77
2022-09-05T14:05:06.632Z,0.80
2022-09-05T14:07:54.830Z,0.68
2022-09-05T14:10:57.564Z,0.70
2022-09-05T14:13:40.689Z,0.60
2022-09-05T14:16:12.575Z,0.60
2022-09-05T14:19:08.558Z,0.57
2022-09-05T14:21:38.739Z,0.73
2022-09-05T14:24:27.393Z,0.55
2022-09-05T14:27:06.439Z,0.90
2022-09-05T14:29:49.768Z,0.90
2022-09-05T14:37:41.425Z,1.02
2022-09-05T14:37:53.212Z,1.10
2022-09-05T14:38:42.675Z,0.88
2022-09-05T14:41:34.583Z,1.05
2022-09-05T14:44:20.339Z,0.90
2022-09-05T14:46:57.720Z,0.93
2022-09-05T14:49:35.782Z,0.80
2022-09-05T14:52:28.715Z,0.60
2022-09-05T15:02:44.079Z,0.82
2022-09-05T15:02:52.294Z,0.82
2022-09-05T15:07:00.244Z,0.95
2022-09-05T15:12:14.023Z,0.85
2022-09-05T15:12:39.718Z,1.02
2022-09-05T15:15:22.858Z,0.68
2022-09-05T15:17:52.657Z,0.77
2022-09-05T15:20:42.657Z,0.75
2022-09-05T15:23:16.812Z,0.80
2022-09-05T15:25:55.782Z,0.80
2022-09-05T15:28:41.328Z,0.80
2022-09-05T15:31:20.957Z,0.73
2022-09-05T15:33:49.257Z,0.80
2022-09-05T15:36:38.843Z,0.90
2022-09-05T15:39:27.492Z,0.88
2022-09-05T15:42:06.702Z,0.90
2022-09-05T15:44:53.303Z,0.93
2022-09-05T15:47:30.843Z,0.63
2022-09-05T15:49:59.897Z,0.90
2022-09-05T15:52:47.763Z,1.00
2022-09-05T15:55:24.782Z,1.13
2022-09-05T15:58:05.937Z,0.80
2022-09-05T16:00:55.394Z,1.30
2022-09-05T16:07:57.135Z,0.90
2022-09-05T16:10:38.971Z,1.08
2022-09-05T16:12:42.124Z,0.98
2022-09-05T16:19:04.923Z,1.00
2022-09-05T16:23:14.501Z,0.90
2022-09-05T16:23:30.266Z,0.93
2022-09-05T16:24:04.815Z,0.90
2022-09-05T16:26:41.715Z,0.80
2022-09-05T16:29:22.632Z,0.95
2022-09-05T16:32:04.669Z,0.80
2022-09-05T16:34:44.052Z,0.93
2022-09-05T16:37:20.684Z,0.80
2022-09-05T16:39:50.428Z,0.90
2022-09-05T16:42:46.548Z,0.90
2022-09-05T16:45:33.129Z,1.02
2022-09-05T16:48:23.772Z,1.40
2022-09-05T16:51:15.149Z,1.00
2022-09-05T16:53:58.400Z,1.00
2022-09-05T16:56:35.522Z,0.80
2022-09-05T16:59:13.826Z,0.93
2022-09-05T17:02:05.654Z,0.90
2022-09-05T17:05:04.829Z,1.08
2022-09-05T17:07:51.682Z,1.30
2022-09-05T17:10:27.794Z,1.10
2022-09-05T17:13:01.947Z,0.98
2022-09-05T17:15:38.952Z,1.13
2022-09-05T17:18:25.015Z,1.25
2022-09-05T17:21:04.787Z,0.93
2022-09-05T17:29:17.007Z,0.82
2022-09-05T17:29:26.226Z,0.90
2022-09-05T17:31:10.867Z,0.80
2022-09-05T17:32:45.776Z,1.40
2022-09-05T17:35:25.011Z,1.00
2022-09-05T17:38:21.988Z,0.73
2022-09-05T17:41:07.844Z,0.77
2022-09-05T17:43:45.794Z,1.20
2022-09-05T17:46:13.071Z,1.00
2022-09-05T17:49:17.924Z,1.20
2022-09-05T17:51:53.416Z,1.10
2022-09-05T17:54:32.830Z,0.98
2022-09-05T17:57:18.387Z,1.05
2022-09-05T17:59:52.833Z,1.08
2022-09-05T18:02:19.999Z,1.00
2022-09-05T18:04:48.742Z,1.13
2022-09-05T18:07:39.202Z,1.15
2022-09-05T18:10:14.557Z,0.90
2022-09-05T18:13:12.528Z,1.17
2022-09-05T18:15:44.027Z,0.98
2022-09-05T18:19:28.891Z,1.00
2022-09-05T18:21:42.363Z,1.30
2022-09-05T18:24:24.192Z,1.00
2022-09-05T18:26:56.050Z,1.02
2022-09-05T18:29:58.410Z,1.10
2022-09-05T18:32:45.231Z,0.90
2022-09-05T18:35:36.906Z,1.13
2022-09-05T18:38:05.362Z,1.35
2022-09-05T18:40:52.788Z,1.23
2022-09-05T18:43:26.380Z,1.30
2022-09-05T18:46:08.232Z,1.30
2022-09-05T18:48:43.926Z,1.10
2022-09-05T18:51:39.961Z,1.30
2022-09-05T18:54:20.130Z,1.20
2022-09-05T18:57:26.633Z,1.17
2022-09-05T19:00:05.004Z,1.10
2022-09-05T19:02:58.820Z,1.00
2022-09-05T19:05:46.212Z,0.90
2022-09-05T19:08:40.795Z,1.33
2022-09-05T19:11:28.256Z,1.27
2022-09-05T19:14:38.651Z,1.10
2022-09-05T19:17:17.632Z,1.02
2022-09-05T19:20:31.725Z,1.02
2022-09-05T19:23:10.154Z,1.08
2022-09-05T19:25:47.876Z,1.15
2022-09-05T19:36:37.681Z,1.20
2022-09-05T19:36:52.295Z,1.20
2022-09-05T19:37:24.082Z,1.20
2022-09-05T19:37:30.279Z,1.00
2022-09-05T19:43:42.819Z,1.35
2022-09-05T19:47:35.374Z,1.23
2022-09-05T19:47:49.755Z,1.20
2022-09-05T19:48:42.825Z,1.20
2022-09-05T19:51:16.728Z,0.90
2022-09-05T19:54:04.851Z,1.02
2022-09-05T19:56:45.135Z,1.15
2022-09-05T19:59:33.960Z,1.20
2022-09-05T20:02:02.583Z,1.10
2022-09-05T20:04:44.028Z,1.40
2022-09-05T20:07:15.452Z,0.95
2022-09-05T20:09:43.482Z,1.40
2022-09-05T20:12:24.498Z,1.17
2022-09-05T20:14:52.064Z,1.15
2022-09-05T20:17:21.326Z,1.20
2022-09-05T20:19:55.720Z,1.33
2022-09-05T20:22:47.900Z,1.17
2022-09-05T20:25:35.186Z,1.15
2022-09-05T20:28:09.981Z,1.30
2022-09-05T20:30:44.885Z,1.40
2022-09-05T20:33:16.662Z,1.48
2022-09-05T20:43:07.990Z,1.50
2022-09-05T20:43:24.416Z,1.33
2022-09-05T20:43:32.446Z,1.30
2022-09-05T20:44:48.446Z,1.38
2022-09-05T20:52:26.039Z,1.30
2022-09-05T20:54:22.576Z,1.60
2022-09-05T20:54:26.553Z,1.55
2022-09-05T20:56:22.728Z,1.60
2022-09-05T20:58:57.865Z,1.38
2022-09-05T21:01:25.769Z,1.80
2022-09-05T21:04:04.879Z,1.73
2022-09-05T21:06:35.883Z,1.40
2022-09-05T21:09:24.676Z,1.50
2022-09-05T21:12:05.957Z,2.03
2022-09-05T21:14:48.993Z,1.48
2022-09-05T21:17:22.235Z,1.90
2022-09-05T21:20:15.905Z,1.45
2022-09-05T21:22:44.116Z,1.73
2022-09-05T21:25:14.039Z,1.95
2022-09-05T21:27:47.983Z,1.90
2022-09-05T21:30:21.506Z,1.80
2022-09-05T21:32:57.854Z,2.03
2022-09-05T21:35:34.400Z,1.70
2022-09-05T21:38:08.846Z,2.00
2022-09-05T21:40:36.056Z,1.95
2022-09-05T21:45:44.648Z,2.30
2022-09-05T21:47:46.045Z,2.13
2022-09-05T21:48:45.618Z,2.00
2022-09-05T21:51:22.941Z,1.70
2022-09-05T21:59:13.803Z,1.90
2022-09-05T21:59:27.971Z,1.80
2022-09-05T21:59:45.413Z,2.00
2022-09-05T22:02:23.935Z,1.85
2022-09-05T22:05:03.161Z,1.80
2022-09-05T22:07:40.851Z,1.70
2022-09-05T22:10:08.533Z,1.70
2022-09-05T22:15:27.493Z,1.92
2022-09-05T22:18:06.363Z,2.00
2022-09-05T22:21:31.905Z,0.90
2022-09-05T22:23:44.433Z,1.30
2022-09-05T22:26:18.943Z,1.08
2022-09-05T22:28:49.516Z,1.30
2022-09-05T22:31:17.434Z,1.15
2022-09-05T22:33:51.478Z,1.42
2022-09-05T22:36:18.796Z,1.52
2022-09-05T22:38:46.948Z,1.90
2022-09-05T22:41:29.986Z,1.55
2022-09-05T22:43:58.333Z,2.15
2022-09-05T22:46:31.971Z,1.70
2022-09-05T22:48:59.312Z,2.20
2022-09-05T22:51:26.443Z,1.80
2022-09-05T22:54:00.885Z,2.00
2022-09-05T22:56:32.479Z,1.80
2022-09-05T22:58:59.640Z,2.55
2022-09-05T23:01:34.032Z,2.30
2022-09-05T23:04:01.458Z,2.10
2022-09-05T23:06:28.806Z,2.60
2022-09-05T23:09:02.769Z,1.52
2022-09-05T23:11:36.885Z,1.80
2022-09-05T23:14:10.938Z,2.13
2022-09-05T23:16:38.228Z,2.13
2022-09-05T23:19:05.419Z,2.20
2022-09-05T23:21:38.902Z,1.67
2022-09-05T23:24:06.136Z,1.80
2022-09-05T23:26:33.297Z,2.20
2022-09-05T23:29:06.810Z,1.88
2022-09-05T23:31:34.072Z,1.63
2022-09-05T23:34:01.262Z,1.48
2022-09-05T23:36:34.919Z,1.65
2022-09-05T23:39:02.475Z,1.50
2022-09-05T23:41:30.020Z,1.60
2022-09-05T23:44:03.792Z,2.10
2022-09-05T23:46:32.857Z,2.00
2022-09-05T23:49:00.087Z,2.03
2022-09-05T23:51:33.904Z,1.85
2022-09-05T23:54:01.158Z,1.63
2022-09-05T23:56:28.362Z,1.90
2022-09-05T23:59:01.770Z,1.80
